Time;durP1;ratioP1;P1;durP2;ratioP2;P2;SDS_P1;SDS_P2;PMS_P1;PMS_P2;Temp;Humidity;BMP_temperature;BMP_pressure;BME280_temperature;BME280_humidity;BME280_pressure;Samples;Min_cycle;Max_cycle;Signal;HPM_P1;HPM_P2
2022/04/01 00:02:23;;;;;;;6.80;5.88;;;5.30;99.90;;;;;;4974111;28;20810;-66
2022/04/01 00:04:48;;;;;;;7.73;4.57;;;5.40;99.90;;;;;;4973652;28;20196;-66
2022/04/01 00:07:15;;;;;;;14.30;8.10;;;5.40;99.90;;;;;;4972752;28;20183;-66
2022/04/01 00:09:40;;;;;;;9.60;7.40;;;5.40;99.90;;;;;;4974391;28;20411;-66
2022/04/01 00:12:08;;;;;;;8.23;5.20;;;5.40;99.90;;;;;;4974219;28;20259;-64
2022/04/01 00:14:34;;;;;;;8.35;4.97;;;5.40;99.90;;;;;;4973800;28;20169;-67
2022/04/01 00:17:00;;;;;;;10.98;5.25;;;5.40;99.90;;;;;;4974555;28;20531;-66
2022/04/01 00:19:27;;;;;;;10.90;7.30;;;5.40;99.90;;;;;;4974255;28;20259;-65
2022/04/01 00:21:53;;;;;;;8.45;5.40;;;5.40;99.90;;;;;;4973959;28;20811;-64
2022/04/01 00:24:19;;;;;;;6.38;5.78;;;5.40;99.90;;;;;;4973779;28;20191;-64
2022/04/01 00:26:45;;;;;;;4.27;3.60;;;5.40;99.90;;;;;;4974139;28;20172;-67
2022/04/01 00:29:15;;;;;;;6.65;5.43;;;5.30;99.90;;;;;;4974102;28;20653;-64
2022/04/01 00:31:59;;;;;;;7.25;5.03;;;5.30;99.90;;;;;;4974516;28;20190;-65
2022/04/01 00:34:33;;;;;;;5.80;4.70;;;5.30;99.90;;;;;;4973600;28;20172;-65
2022/04/01 00:37:01;;;;;;;8.57;6.40;;;5.20;99.90;;;;;;4973975;28;20277;-65
2022/04/01 00:39:29;;;;;;;7.40;4.88;;;5.20;99.90;;;;;;4973790;28;20263;-64
2022/04/01 00:41:56;;;;;;;7.13;5.35;;;5.20;99.90;;;;;;4973825;28;20752;-65
2022/04/01 00:44:25;;;;;;;6.30;5.28;;;5.20;99.90;;;;;;4973631;28;20227;-66
2022/04/01 00:46:52;;;;;;;5.20;4.70;;;5.20;99.90;;;;;;4977354;28;20164;-66
2022/04/01 00:49:19;;;;;;;8.35;4.82;;;5.20;99.90;;;;;;4977303;28;20164;-66
2022/04/01 00:51:47;;;;;;;4.25;3.83;;;5.10;99.90;;;;;;4977065;28;20188;-65
2022/04/01 00:54:13;;;;;;;5.05;4.53;;;5.10;99.90;;;;;;4977168;28;20211;-66
2022/04/01 00:56:39;;;;;;;4.25;3.92;;;5.10;99.90;;;;;;4977186;28;20279;-65
2022/04/01 00:59:08;;;;;;;5.72;4.63;;;5.00;99.90;;;;;;4977530;28;20639;-65
2022/04/01 01:01:34;;;;;;;8.15;3.95;;;5.00;99.90;;;;;;4976050;28;20591;-66
2022/04/01 01:04:05;;;;;;;4.18;3.80;;;5.00;99.90;;;;;;4976644;28;20757;-66
2022/04/01 01:06:33;;;;;;;4.40;4.00;;;4.90;99.90;;;;;;4977193;28;20196;-64
2022/04/01 01:09:02;;;;;;;6.65;4.03;;;4.90;99.90;;;;;;4977135;28;20198;-64
2022/04/01 01:11:28;;;;;;;5.10;3.60;;;4.90;99.90;;;;;;4976690;28;20168;-64
2022/04/01 01:13:54;;;;;;;8.63;4.60;;;4.90;99.90;;;;;;4976640;28;20546;-66
2022/04/01 01:16:20;;;;;;;3.53;2.58;;;4.90;99.90;;;;;;4976733;28;20830;-66
2022/04/01 01:18:59;;;;;;;5.25;3.30;;;4.90;99.90;;;;;;4976877;28;20231;-66
2022/04/01 01:21:26;;;;;;;3.80;2.92;;;4.90;99.90;;;;;;4976996;28;20191;-65
2022/04/01 01:23:51;;;;;;;6.07;4.45;;;4.80;99.90;;;;;;4976605;28;20630;-67
2022/04/01 01:26:18;;;;;;;8.97;3.97;;;4.90;99.90;;;;;;4976931;28;20255;-63
2022/04/01 01:28:44;;;;;;;4.07;3.53;;;4.90;99.90;;;;;;4976466;28;20535;-66
2022/04/01 01:31:09;;;;;;;5.40;4.80;;;4.90;99.90;;;;;;4976355;28;20176;-64
2022/04/01 01:33:35;;;;;;;4.23;3.80;;;4.80;99.90;;;;;;4976446;28;20406;-65
2022/04/01 01:36:00;;;;;;;4.20;3.80;;;4.80;99.90;;;;;;4976505;28;20222;-67
2022/04/01 01:38:26;;;;;;;7.73;5.80;;;4.80;99.90;;;;;;4976568;28;20188;-66
2022/04/01 01:40:53;;;;;;;5.37;4.77;;;4.70;99.90;;;;;;4976596;28;20273;-66
2022/04/01 01:43:20;;;;;;;4.65;4.18;;;4.70;99.90;;;;;;4975991;28;20239;-66
2022/04/01 01:45:45;;;;;;;5.78;4.05;;;4.70;99.90;;;;;;4976562;28;20184;-64
2022/04/01 01:48:11;;;;;;;6.30;4.00;;;4.70;99.90;;;;;;4976475;28;20739;-66
2022/04/01 01:56:05;;;;;;;7.35;4.55;;;4.60;99.90;;;;;;4976152;28;20203;-66
2022/04/01 01:58:31;;;;;;;5.73;3.97;;;4.60;99.90;;;;;;4975375;28;20562;-64
2022/04/01 02:00:57;;;;;;;4.65;3.63;;;4.60;99.90;;;;;;4976503;28;20555;-64
2022/04/01 02:03:22;;;;;;;4.83;4.37;;;4.60;99.90;;;;;;4976398;28;20306;-63
2022/04/01 02:05:50;;;;;;;6.20;4.33;;;4.60;99.90;;;;;;4976152;28;20188;-67
2022/04/01 02:08:15;;;;;;;3.05;2.85;;;4.60;99.90;;;;;;4976287;28;20230;-65
2022/04/01 02:10:41;;;;;;;6.63;4.50;;;4.60;99.90;;;;;;4976043;28;20255;-66
2022/04/01 02:13:07;;;;;;;10.03;6.60;;;4.60;99.90;;;;;;4975625;28;20207;-66
2022/04/01 02:15:33;;;;;;;6.00;5.20;;;4.60;99.90;;;;;;4976196;28;20215;-66
2022/04/01 02:17:58;;;;;;;5.25;4.20;;;4.60;99.90;;;;;;4974867;28;20180;-65
2022/04/01 02:20:24;;;;;;;5.77;5.27;;;4.70;99.90;;;;;;4974550;28;20179;-65
2022/04/01 02:22:53;;;;;;;4.20;3.87;;;4.60;99.90;;;;;;4976030;28;20482;-66
2022/04/01 02:25:19;;;;;;;6.00;4.53;;;4.60;99.90;;;;;;4975472;28;20274;-64
2022/04/01 02:27:44;;;;;;;6.00;4.50;;;4.70;99.90;;;;;;4975377;28;20215;-65
2022/04/01 02:30:11;;;;;;;4.57;3.67;;;4.70;99.90;;;;;;4975844;28;20520;-66
2022/04/01 02:32:40;;;;;;;6.18;4.97;;;4.70;99.90;;;;;;4975588;28;20710;-64
2022/04/01 02:35:07;;;;;;;4.43;4.03;;;4.70;99.90;;;;;;4975022;28;20632;-65
2022/04/01 02:37:33;;;;;;;4.50;3.25;;;4.60;99.90;;;;;;4975408;28;20255;-65
2022/04/01 02:39:59;;;;;;;5.25;4.68;;;4.60;99.90;;;;;;4975604;28;20262;-64
2022/04/01 02:42:25;;;;;;;5.07;3.90;;;4.60;99.90;;;;;;4974895;28;20640;-64
2022/04/01 02:44:51;;;;;;;6.60;4.60;;;4.60;99.90;;;;;;4974847;28;20494;-66
2022/04/01 02:47:16;;;;;;;4.23;3.83;;;4.60;99.90;;;;;;4975365;28;20168;-65
2022/04/01 02:49:42;;;;;;;5.40;3.87;;;4.60;99.90;;;;;;4975349;28;20179;-65
2022/04/01 02:52:08;;;;;;;6.77;5.77;;;4.60;99.90;;;;;;4974875;28;20183;-65
2022/04/01 02:54:34;;;;;;;4.70;3.87;;;4.60;99.90;;;;;;4974766;28;20208;-66
2022/04/01 02:57:00;;;;;;;6.60;5.28;;;4.50;99.90;;;;;;4974962;28;20786;-66
2022/04/01 02:59:26;;;;;;;8.80;5.00;;;4.60;99.90;;;;;;4974934;28;20180;-66
2022/04/01 03:01:52;;;;;;;4.50;4.10;;;4.60;99.90;;;;;;4974949;28;20678;-66
2022/04/01 03:04:17;;;;;;;6.63;4.00;;;4.60;99.90;;;;;;4974520;28;20168;-65
2022/04/01 03:06:43;;;;;;;7.10;4.73;;;4.60;99.90;;;;;;4975116;28;20171;-64
2022/04/01 03:09:09;;;;;;;6.77;4.10;;;4.60;99.90;;;;;;4974929;28;20293;-64
2022/04/01 03:11:38;;;;;;;7.10;4.72;;;4.60;99.90;;;;;;4974969;28;20198;-66
2022/04/01 03:14:06;;;;;;;6.40;4.88;;;4.60;99.90;;;;;;4974231;28;20184;-64
2022/04/01 03:16:32;;;;;;;7.97;5.10;;;4.60;99.90;;;;;;4974615;28;20690;-67
2022/04/01 03:18:59;;;;;;;9.50;5.43;;;4.60;99.90;;;;;;4973461;28;20215;-67
2022/04/01 03:21:25;;;;;;;8.25;5.10;;;4.60;99.90;;;;;;4974544;28;20452;-66
2022/04/01 03:23:51;;;;;;;7.10;6.40;;;4.60;99.90;;;;;;4974421;28;20168;-64
2022/04/01 03:26:17;;;;;;;6.67;5.50;;;4.60;99.90;;;;;;4974748;28;20187;-64
2022/04/01 03:28:43;;;;;;;4.65;4.22;;;4.60;99.90;;;;;;4974223;28;20554;-67
2022/04/01 03:31:09;;;;;;;5.67;3.80;;;4.60;99.90;;;;;;4973388;28;20646;-65
2022/04/01 03:33:36;;;;;;;4.68;3.92;;;4.60;99.90;;;;;;4974238;28;20176;-62
2022/04/01 03:36:03;;;;;;;5.10;4.57;;;4.60;99.90;;;;;;4974333;28;20230;-65
2022/04/01 03:38:30;;;;;;;5.63;3.95;;;4.50;99.90;;;;;;4974580;28;20180;-65
2022/04/01 03:40:57;;;;;;;5.72;5.10;;;4.40;99.90;;;;;;4974387;28;20692;-64
2022/04/01 03:43:24;;;;;;;5.28;4.38;;;4.40;99.90;;;;;;4973828;28;20179;-65
2022/04/01 03:45:55;;;;;;;7.13;4.18;;;4.40;99.90;;;;;;4974616;28;20203;-65
2022/04/01 03:48:39;;;;;;;6.15;5.55;;;4.40;99.90;;;;;;4974669;28;20195;-63
2022/04/01 03:51:05;;;;;;;11.75;3.67;;;4.30;99.90;;;;;;4974597;28;20241;-65
2022/04/01 03:53:34;;;;;;;7.22;6.43;;;4.30;99.90;;;;;;4974260;28;20234;-66
2022/04/01 03:56:01;;;;;;;8.32;5.07;;;4.30;99.90;;;;;;4974348;28;20211;-66
2022/04/01 03:58:32;;;;;;;6.72;4.80;;;4.30;99.90;;;;;;4974241;28;20587;-61
2022/04/01 04:01:05;;;;;;;6.03;3.70;;;4.30;99.90;;;;;;4974294;28;20196;-66
2022/04/01 04:03:31;;;;;;;8.85;4.68;;;4.30;99.90;;;;;;4974082;28;20191;-65
2022/04/01 04:05:58;;;;;;;4.03;3.72;;;4.30;99.90;;;;;;4974145;28;20271;-64
2022/04/01 04:08:24;;;;;;;7.13;4.15;;;4.30;99.90;;;;;;4974382;28;20175;-66
2022/04/01 04:10:51;;;;;;;4.13;3.50;;;4.30;99.90;;;;;;4973111;28;20554;-63
2022/04/01 04:13:18;;;;;;;5.32;4.80;;;4.20;99.90;;;;;;4973295;28;20542;-64
2022/04/01 04:15:57;;;;;;;5.32;4.68;;;4.20;99.90;;;;;;4974219;28;20224;-65
2022/04/01 04:18:32;;;;;;;4.30;3.90;;;4.20;99.90;;;;;;4974162;28;20278;-64
2022/04/01 04:21:04;;;;;;;4.65;4.22;;;4.20;99.90;;;;;;4976524;28;20274;-64
2022/04/01 04:23:37;;;;;;;4.72;4.22;;;4.20;99.90;;;;;;4977631;28;20203;-66
2022/04/01 04:26:13;;;;;;;7.10;4.50;;;4.20;99.90;;;;;;4977060;28;20258;-64
2022/04/01 04:28:43;;;;;;;4.05;2.97;;;4.20;99.90;;;;;;4977845;28;20188;-64
2022/04/01 04:31:11;;;;;;;4.68;3.92;;;4.10;99.90;;;;;;4977725;28;20497;-63
2022/04/01 04:33:44;;;;;;;3.22;3.03;;;4.10;99.90;;;;;;4977556;28;20180;-63
2022/04/01 04:36:11;;;;;;;7.20;3.65;;;4.10;99.90;;;;;;4977197;28;20254;-66
2022/04/01 04:38:39;;;;;;;6.43;4.80;;;4.00;99.90;;;;;;4977591;28;20184;-64
2022/04/01 04:41:08;;;;;;;4.57;4.00;;;4.00;99.90;;;;;;4977469;28;20195;-64
2022/04/01 04:43:44;;;;;;;4.57;3.70;;;4.00;99.90;;;;;;4977008;28;20196;-66
2022/04/01 04:46:10;;;;;;;8.50;5.22;;;4.00;99.90;;;;;;4977582;28;20198;-64
2022/04/01 04:48:40;;;;;;;3.72;3.47;;;3.90;99.90;;;;;;4977584;28;20191;-64
2022/04/01 04:51:06;;;;;;;3.15;2.95;;;3.90;99.90;;;;;;4977165;28;20262;-65
2022/04/01 04:53:34;;;;;;;5.57;3.80;;;3.80;99.90;;;;;;4977117;28;20208;-66
2022/04/01 04:56:02;;;;;;;5.63;3.28;;;3.80;99.90;;;;;;4977015;28;20196;-63
2022/04/01 04:58:39;;;;;;;5.95;3.90;;;3.80;99.90;;;;;;4977262;28;20535;-63
2022/04/01 05:01:32;;;;;;;5.20;3.22;;;3.80;99.90;;;;;;4976137;28;20184;-64
2022/04/01 05:04:06;;;;;;;5.43;3.67;;;3.80;99.90;;;;;;4975404;28;20667;-64
2022/04/01 05:06:48;;;;;;;5.18;4.78;;;3.80;99.90;;;;;;4977116;28;20192;-66
2022/04/01 05:09:37;;;;;;;3.95;3.33;;;3.80;99.90;;;;;;4977247;28;20168;-63
2022/04/01 05:12:07;;;;;;;2.15;2.05;;;3.80;99.90;;;;;;4977941;28;20172;-66
2022/04/01 05:15:04;;;;;;;6.75;4.07;;;3.80;99.90;;;;;;4979033;28;20191;-64
2022/04/01 05:17:43;;;;;;;7.75;3.67;;;3.80;99.90;;;;;;4979224;28;20584;-65
2022/04/01 05:20:16;;;;;;;5.03;3.88;;;3.80;99.90;;;;;;4978976;28;20168;-66
2022/04/01 05:22:47;;;;;;;4.90;3.95;;;3.80;99.90;;;;;;4977794;28;20183;-64
2022/04/01 05:25:18;;;;;;;3.55;2.90;;;3.80;99.90;;;;;;4979066;28;20258;-65
2022/04/01 05:27:53;;;;;;;3.65;3.10;;;3.80;99.90;;;;;;4978637;28;20527;-64
2022/04/01 05:30:23;;;;;;;5.80;5.20;;;3.80;99.90;;;;;;4978536;28;20182;-65
2022/04/01 05:33:06;;;;;;;5.93;3.85;;;3.80;99.90;;;;;;4975373;28;20230;-65
2022/04/01 05:35:37;;;;;;;6.03;4.65;;;3.80;99.90;;;;;;4976446;28;20571;-67
2022/04/01 05:38:04;;;;;;;6.35;4.40;;;3.90;99.90;;;;;;4976500;28;20234;-62
2022/04/01 05:40:31;;;;;;;5.65;3.97;;;3.90;99.90;;;;;;4976683;28;20172;-66
2022/04/01 05:42:59;;;;;;;2.97;2.78;;;3.90;99.90;;;;;;4977116;28;20168;-68
2022/04/01 05:45:29;;;;;;;3.65;3.45;;;3.90;99.90;;;;;;4978467;28;20188;-65
2022/04/01 05:47:56;;;;;;;3.78;3.20;;;3.90;99.90;;;;;;4976628;28;20303;-65
2022/04/01 05:50:23;;;;;;;4.32;3.50;;;3.90;99.90;;;;;;4976391;28;20184;-64
2022/04/01 05:52:51;;;;;;;3.60;3.30;;;3.90;99.90;;;;;;4976033;28;20533;-64
2022/04/01 05:55:21;;;;;;;4.38;3.95;;;3.90;99.90;;;;;;4975942;28;20200;-62
2022/04/01 05:57:54;;;;;;;3.47;3.17;;;3.90;99.90;;;;;;4976292;28;20176;-62
2022/04/01 06:00:20;;;;;;;4.03;3.15;;;3.80;99.90;;;;;;4975744;28;20175;-63
2022/04/01 06:03:17;;;;;;;5.37;3.90;;;3.80;99.90;;;;;;4975911;28;20647;-64
2022/04/01 06:06:02;;;;;;;4.60;4.18;;;3.80;99.90;;;;;;4975974;28;20427;-65
2022/04/01 06:08:53;;;;;;;4.28;3.95;;;3.80;99.90;;;;;;4975179;28;20173;-63
2022/04/01 06:11:27;;;;;;;4.35;3.95;;;3.80;99.90;;;;;;4976050;28;20172;-67
2022/04/01 06:14:02;;;;;;;3.90;3.55;;;3.90;99.90;;;;;;4975436;28;20174;-65
2022/04/01 06:16:49;;;;;;;4.43;4.13;;;3.90;99.90;;;;;;4975924;28;20203;-65
2022/04/01 06:19:21;;;;;;;3.88;3.28;;;3.90;99.90;;;;;;4975788;28;20215;-68
2022/04/01 06:21:49;;;;;;;3.22;2.97;;;3.80;99.90;;;;;;4975691;28;20250;-65
2022/04/01 06:24:54;;;;;;;5.05;3.47;;;3.80;99.90;;;;;;4975073;28;20202;-64
2022/04/01 06:27:33;;;;;;;5.60;3.75;;;3.80;99.90;;;;;;4975783;28;20179;-68
2022/04/01 06:30:10;;;;;;;4.82;4.05;;;3.70;99.90;;;;;;4975623;28;20555;-67
2022/04/01 06:33:18;;;;;;;4.10;3.45;;;3.70;99.90;;;;;;4975063;28;20251;-67
2022/04/01 06:35:50;;;;;;;3.30;3.10;;;3.70;99.90;;;;;;4973746;28;20680;-67
2022/04/01 06:38:30;;;;;;;4.30;3.90;;;3.80;99.90;;;;;;4975565;28;20180;-67
2022/04/01 06:40:59;;;;;;;3.55;3.28;;;3.80;99.90;;;;;;4975265;28;20204;-69
2022/04/01 06:43:37;;;;;;;4.38;4.00;;;3.90;99.90;;;;;;4974501;28;20168;-72
2022/04/01 06:46:05;;;;;;;4.53;3.95;;;3.90;99.90;;;;;;4975274;28;20274;-68
2022/04/01 06:48:30;;;;;;;3.85;3.55;;;4.00;99.90;;;;;;4973908;28;20325;-69
2022/04/01 06:50:57;;;;;;;4.60;3.83;;;4.00;99.90;;;;;;4974962;28;20259;-67
2022/04/01 06:53:23;;;;;;;3.40;2.90;;;4.00;99.90;;;;;;4974853;28;20415;-67
2022/04/01 06:55:49;;;;;;;4.60;3.10;;;4.10;99.90;;;;;;4975264;28;20195;-71
2022/04/01 06:58:14;;;;;;;6.40;4.57;;;4.10;99.90;;;;;;4975269;28;20407;-67
2022/04/01 07:00:41;;;;;;;9.43;3.73;;;4.10;99.90;;;;;;4974823;28;20207;-67
2022/04/01 07:03:07;;;;;;;7.82;5.72;;;4.10;99.90;;;;;;4974668;28;20176;-69
2022/04/01 07:05:36;;;;;;;4.75;3.70;;;4.20;99.90;;;;;;4974884;28;20184;-67
2022/04/01 07:08:03;;;;;;;4.88;4.38;;;4.20;99.90;;;;;;4973543;28;20266;-66
2022/04/01 07:10:29;;;;;;;5.75;3.28;;;4.20;99.90;;;;;;4974882;28;20168;-71
2022/04/01 07:12:54;;;;;;;6.57;4.03;;;4.30;99.90;;;;;;4974826;28;20174;-68
2022/04/01 07:15:20;;;;;;;4.30;3.77;;;4.20;99.90;;;;;;4973905;28;20206;-69
2022/04/01 07:17:46;;;;;;;5.90;5.40;;;4.30;99.90;;;;;;4974476;28;20497;-67
2022/04/01 07:20:12;;;;;;;7.27;5.53;;;4.30;99.90;;;;;;4974575;28;20647;-66
2022/04/01 07:22:40;;;;;;;6.72;5.30;;;4.30;99.90;;;;;;4974212;28;20204;-66
2022/04/01 07:25:07;;;;;;;8.15;6.43;;;4.30;99.90;;;;;;4974302;28;20192;-66
2022/04/01 07:27:34;;;;;;;3.85;3.55;;;4.20;99.90;;;;;;4974470;28;20195;-67
2022/04/01 07:30:00;;;;;;;7.10;5.55;;;4.20;99.90;;;;;;4974539;28;20199;-69
2022/04/01 07:32:32;;;;;;;5.60;4.30;;;4.20;99.90;;;;;;4974646;28;20210;-67
2022/04/01 07:34:58;;;;;;;4.53;4.10;;;4.20;99.90;;;;;;4974913;28;20389;-68
2022/04/01 07:37:25;;;;;;;7.30;5.05;;;4.20;99.90;;;;;;4978117;28;20243;-67
2022/04/01 07:39:52;;;;;;;7.78;5.72;;;4.20;99.90;;;;;;4974276;28;20211;-68
2022/04/01 07:42:20;;;;;;;4.97;4.43;;;4.20;99.90;;;;;;4973944;28;20540;-65
2022/04/01 07:44:47;;;;;;;5.00;4.50;;;4.20;99.90;;;;;;4973621;28;20180;-69
2022/04/01 07:47:14;;;;;;;4.55;3.75;;;4.10;99.90;;;;;;4973525;28;20559;-66
2022/04/01 07:49:43;;;;;;;3.55;3.25;;;4.10;99.90;;;;;;4974120;28;20239;-69
2022/04/01 07:52:10;;;;;;;4.70;4.30;;;4.20;99.90;;;;;;4973662;28;20203;-68
2022/04/01 07:54:37;;;;;;;5.45;4.35;;;4.20;99.90;;;;;;4973480;28;20318;-66
2022/04/01 07:57:05;;;;;;;7.70;5.18;;;4.20;99.90;;;;;;4977635;28;20183;-66
2022/04/01 07:59:31;;;;;;;4.93;3.42;;;4.20;99.90;;;;;;4977773;28;20244;-64
2022/04/01 08:01:57;;;;;;;4.20;3.80;;;4.20;99.90;;;;;;4977486;28;20734;-63
2022/04/01 08:04:23;;;;;;;3.13;2.72;;;4.20;99.90;;;;;;4975834;28;20168;-63
2022/04/01 08:06:48;;;;;;;4.50;3.40;;;4.30;99.90;;;;;;4977014;28;20662;-64
2022/04/01 08:09:14;;;;;;;3.57;3.37;;;4.30;99.90;;;;;;4978030;28;20176;-66
2022/04/01 08:11:40;;;;;;;4.67;4.07;;;4.30;99.90;;;;;;4978209;28;20187;-61
2022/04/01 08:14:06;;;;;;;6.25;4.85;;;4.30;99.90;;;;;;4977409;28;20168;-65
2022/04/01 08:16:31;;;;;;;5.13;4.47;;;4.30;99.90;;;;;;4977608;28;20277;-64
2022/04/01 08:18:58;;;;;;;6.33;4.23;;;4.30;99.90;;;;;;4977726;28;20184;-64
2022/04/01 08:21:23;;;;;;;4.53;3.60;;;4.30;99.90;;;;;;4977366;28;20286;-64
2022/04/01 08:23:49;;;;;;;4.33;3.87;;;4.30;99.90;;;;;;4957860;28;20260;-64
2022/04/01 08:26:15;;;;;;;5.47;3.93;;;4.30;99.90;;;;;;4958221;29;20204;-62
2022/04/01 08:28:41;;;;;;;6.10;3.93;;;4.30;99.90;;;;;;4958156;28;20169;-63
2022/04/01 08:31:08;;;;;;;4.27;3.97;;;4.30;99.90;;;;;;4958106;28;20172;-62
2022/04/01 08:33:34;;;;;;;4.95;4.25;;;4.20;99.90;;;;;;4957562;28;20415;-63
2022/04/01 08:35:59;;;;;;;4.37;3.93;;;4.20;99.90;;;;;;4957840;29;20207;-63
2022/04/01 08:38:25;;;;;;;4.13;3.77;;;4.10;99.90;;;;;;4975985;28;20513;-62
2022/04/01 08:40:51;;;;;;;3.57;2.90;;;4.10;99.90;;;;;;4977092;28;20274;-62
2022/04/01 08:43:27;;;;;;;4.20;3.43;;;4.10;99.90;;;;;;4976850;28;20164;-63
2022/04/01 08:45:54;;;;;;;5.55;5.05;;;4.00;99.90;;;;;;4977378;28;20184;-61
2022/04/01 08:48:20;;;;;;;5.57;4.68;;;4.00;99.90;;;;;;4977406;28;20179;-64
2022/04/01 08:50:46;;;;;;;7.10;4.78;;;4.10;99.90;;;;;;4977226;28;20640;-64
2022/04/01 08:53:12;;;;;;;2.90;2.70;;;4.10;99.90;;;;;;4976384;28;20271;-61
2022/04/01 08:55:38;;;;;;;5.30;4.57;;;4.20;99.90;;;;;;4976700;28;20517;-66
2022/04/01 08:58:04;;;;;;;5.83;3.90;;;4.10;99.90;;;;;;4976977;28;20407;-64
2022/04/01 09:00:33;;;;;;;4.05;3.60;;;4.10;99.90;;;;;;4977022;28;20427;-68
2022/04/01 09:03:01;;;;;;;4.70;4.20;;;4.10;99.90;;;;;;4977116;28;20251;-65
2022/04/01 09:05:28;;;;;;;6.82;4.35;;;4.20;99.90;;;;;;4975447;28;20562;-65
2022/04/01 09:08:01;;;;;;;5.20;4.68;;;4.20;99.90;;;;;;4976620;28;20242;-67
2022/04/01 09:10:27;;;;;;;5.68;4.13;;;4.20;99.90;;;;;;4976412;28;20172;-67
2022/04/01 09:12:54;;;;;;;7.50;3.95;;;4.20;99.90;;;;;;4975839;28;20226;-64
2022/04/01 09:15:20;;;;;;;4.53;4.07;;;4.20;99.90;;;;;;4975455;28;20192;-68
2022/04/01 09:17:48;;;;;;;4.90;3.57;;;4.20;99.90;;;;;;4974325;28;20183;-67
2022/04/01 09:20:15;;;;;;;4.68;3.90;;;4.30;99.90;;;;;;4973288;28;20493;-68
2022/04/01 09:22:43;;;;;;;3.58;2.88;;;4.20;99.90;;;;;;4974684;28;20292;-65
2022/04/01 09:25:10;;;;;;;4.32;3.92;;;4.20;99.90;;;;;;4974290;28;20200;-67
2022/04/01 09:27:47;;;;;;;3.97;2.70;;;4.10;99.90;;;;;;4974870;28;20227;-63
2022/04/01 09:30:20;;;;;;;3.47;2.80;;;4.10;99.90;;;;;;4975044;28;20168;-67
2022/04/01 09:32:51;;;;;;;3.80;3.45;;;4.10;99.90;;;;;;4975439;28;20179;-64
2022/04/01 09:35:20;;;;;;;3.10;2.85;;;4.20;99.90;;;;;;4976042;28;20211;-69
2022/04/01 09:37:46;;;;;;;5.18;3.72;;;4.20;99.90;;;;;;4977685;28;20168;-65
2022/04/01 09:40:14;;;;;;;3.08;2.88;;;4.20;99.90;;;;;;4976189;28;20183;-66
2022/04/01 09:42:50;;;;;;;5.50;2.63;;;4.30;99.90;;;;;;4976191;28;20195;-67
2022/04/01 09:45:18;;;;;;;5.65;4.15;;;4.30;99.90;;;;;;4974359;28;20558;-67
2022/04/01 09:47:45;;;;;;;4.47;4.07;;;4.30;99.90;;;;;;4975944;28;20171;-67
2022/04/01 09:50:13;;;;;;;4.15;3.13;;;4.40;99.90;;;;;;4975558;28;20172;-65
2022/04/01 09:52:40;;;;;;;4.88;2.83;;;4.40;99.90;;;;;;4976350;28;20178;-67
2022/04/01 09:55:07;;;;;;;3.22;3.03;;;4.30;99.90;;;;;;4975867;28;20288;-66
2022/04/01 09:57:33;;;;;;;3.22;2.88;;;4.30;99.90;;;;;;4976198;28;20168;-65
2022/04/01 10:00:00;;;;;;;4.30;3.47;;;4.20;99.90;;;;;;4975259;28;20184;-67
2022/04/01 10:02:26;;;;;;;4.65;3.53;;;4.20;99.90;;;;;;4975748;28;20626;-66
2022/04/01 10:04:54;;;;;;;2.93;2.73;;;4.20;99.90;;;;;;4975395;28;20228;-66
2022/04/01 10:07:22;;;;;;;3.00;2.30;;;4.20;99.90;;;;;;4976169;28;20403;-67
2022/04/01 10:09:49;;;;;;;3.50;3.20;;;4.20;99.90;;;;;;4975761;28;20529;-65
2022/04/01 10:12:19;;;;;;;2.78;2.35;;;4.20;99.90;;;;;;4975833;28;20173;-66
2022/04/01 10:14:46;;;;;;;4.05;3.10;;;4.10;99.90;;;;;;4974883;28;20596;-65
2022/04/01 10:17:15;;;;;;;5.60;3.97;;;4.10;99.90;;;;;;4975288;28;20176;-64
2022/04/01 10:19:46;;;;;;;2.53;2.03;;;4.00;99.90;;;;;;4974998;28;20239;-66
2022/04/01 10:22:16;;;;;;;3.53;3.22;;;4.00;99.90;;;;;;4974111;28;20204;-66
2022/04/01 10:25:04;;;;;;;2.72;2.47;;;3.90;99.90;;;;;;4972214;28;20199;-64
2022/04/01 10:27:40;;;;;;;3.38;3.13;;;4.00;99.90;;;;;;4972100;28;20247;-67
2022/04/01 10:30:08;;;;;;;2.38;2.17;;;4.00;99.90;;;;;;4974002;28;20190;-65
2022/04/01 10:32:43;;;;;;;2.50;2.40;;;4.00;99.90;;;;;;4973977;28;20178;-64
2022/04/01 10:35:30;;;;;;;3.55;3.33;;;3.90;99.90;;;;;;4968711;28;20211;-64
2022/04/01 10:38:04;;;;;;;3.00;2.80;;;3.90;99.90;;;;;;4973142;28;20168;-68
2022/04/01 10:40:35;;;;;;;4.28;2.50;;;3.90;99.90;;;;;;4972492;28;20179;-65
2022/04/01 10:43:16;;;;;;;3.10;2.80;;;3.90;99.90;;;;;;4973664;28;20571;-64
2022/04/01 10:46:03;;;;;;;1.95;1.80;;;3.90;99.90;;;;;;4973279;28;20188;-63
2022/04/01 10:51:36;;;;;;;3.42;2.45;;;4.10;99.90;;;;;;4972666;28;20190;-66
2022/04/01 10:54:12;;;;;;;2.50;2.30;;;4.10;99.90;;;;;;4973499;28;20596;-68
2022/04/01 10:56:41;;;;;;;1.75;1.65;;;4.10;99.90;;;;;;4973489;28;20226;-66
2022/04/01 10:59:17;;;;;;;2.33;2.17;;;4.10;99.90;;;;;;4973181;28;20184;-66
2022/04/01 11:01:49;;;;;;;3.22;2.75;;;4.10;99.90;;;;;;4971082;28;20612;-69
2022/04/01 11:04:15;;;;;;;1.75;1.65;;;4.10;99.90;;;;;;4973066;28;20651;-66
2022/04/01 11:06:50;;;;;;;4.53;2.50;;;4.10;99.90;;;;;;4973061;28;20182;-64
2022/04/01 11:09:34;;;;;;;1.90;1.73;;;4.10;99.90;;;;;;4973129;28;20175;-66
2022/04/01 11:12:25;;;;;;;2.00;1.70;;;4.10;99.90;;;;;;4972931;28;20182;-67
2022/04/01 11:14:56;;;;;;;2.63;2.42;;;4.10;99.90;;;;;;4971301;28;20207;-67
2022/04/01 11:17:30;;;;;;;1.77;1.67;;;4.10;99.90;;;;;;4973099;28;20181;-66
2022/04/01 11:20:10;;;;;;;2.50;2.30;;;4.10;99.90;;;;;;4973226;28;20164;-66
2022/04/01 11:22:39;;;;;;;2.40;2.20;;;4.00;99.90;;;;;;4972293;28;20220;-64
2022/04/01 11:25:12;;;;;;;1.90;1.80;;;4.00;99.90;;;;;;4970495;28;20195;-66
2022/04/01 11:28:02;;;;;;;1.58;1.45;;;4.00;99.90;;;;;;4973937;28;20180;-64
2022/04/01 11:30:38;;;;;;;2.97;2.75;;;4.10;99.90;;;;;;4955097;28;20195;-63
2022/04/01 11:33:19;;;;;;;2.58;2.38;;;4.10;99.90;;;;;;4970282;28;20215;-69
2022/04/01 11:35:50;;;;;;;3.95;3.60;;;4.20;99.90;;;;;;4970141;28;20204;-68
2022/04/01 11:38:18;;;;;;;2.47;2.28;;;4.30;99.90;;;;;;4971881;28;20179;-67
2022/04/01 11:40:45;;;;;;;2.60;2.40;;;4.40;99.90;;;;;;4965943;28;20638;-65
2022/04/01 11:43:14;;;;;;;2.35;2.17;;;4.40;99.90;;;;;;4973159;28;20198;-68
2022/04/01 11:45:47;;;;;;;2.20;2.10;;;4.30;99.90;;;;;;4973097;28;20194;-66
2022/04/01 11:48:22;;;;;;;2.20;2.10;;;4.40;99.90;;;;;;4972859;28;20179;-65
2022/04/01 11:50:52;;;;;;;2.47;2.28;;;4.40;99.90;;;;;;4974375;28;20246;-68
2022/04/01 11:53:25;;;;;;;2.30;2.10;;;4.40;99.90;;;;;;4976199;28;20175;-62
2022/04/01 11:55:53;;;;;;;2.03;1.92;;;4.30;99.90;;;;;;4970684;28;20621;-64
2022/04/01 11:58:18;;;;;;;3.85;3.60;;;4.20;99.90;;;;;;4972477;28;20661;-64
2022/04/01 12:00:44;;;;;;;2.30;1.83;;;4.30;99.90;;;;;;4969888;28;20180;-64
2022/04/01 12:03:11;;;;;;;2.30;2.17;;;4.30;99.90;;;;;;4972392;28;20176;-66
2022/04/01 12:05:39;;;;;;;2.70;2.50;;;4.20;99.90;;;;;;4972408;28;20427;-64
2022/04/01 12:11:00;;;;;;;2.80;2.60;;;4.20;99.90;;;;;;4973136;28;20190;-66
2022/04/01 12:13:28;;;;;;;2.65;2.45;;;4.00;99.90;;;;;;4971964;28;20533;-66
2022/04/01 12:15:56;;;;;;;2.40;2.20;;;3.90;99.90;;;;;;4973187;28;20188;-64
2022/04/01 12:18:23;;;;;;;1.77;1.58;;;3.90;99.90;;;;;;4974008;28;20512;-66
2022/04/01 12:21:00;;;;;;;2.75;2.53;;;3.90;99.90;;;;;;4973861;28;20258;-64
2022/04/01 12:23:32;;;;;;;5.43;3.08;;;4.00;99.90;;;;;;4973294;28;20164;-69
2022/04/01 12:25:58;;;;;;;2.45;2.13;;;4.10;99.90;;;;;;4973311;28;20192;-67
2022/04/01 12:28:26;;;;;;;4.10;3.08;;;4.20;99.90;;;;;;4973666;28;20165;-69
2022/04/01 12:30:55;;;;;;;4.30;2.70;;;4.20;99.90;;;;;;4973797;28;20231;-70
2022/04/01 12:33:28;;;;;;;2.22;2.03;;;4.20;99.90;;;;;;4972716;28;20184;-68
2022/04/01 12:36:07;;;;;;;2.80;2.60;;;4.20;99.90;;;;;;4973638;28;20208;-66
2022/04/01 12:38:37;;;;;;;3.45;3.13;;;4.20;99.90;;;;;;4974038;28;20254;-66
2022/04/01 12:41:06;;;;;;;2.80;2.50;;;4.20;99.90;;;;;;4973801;28;20558;-64
2022/04/01 12:43:44;;;;;;;3.20;2.90;;;4.10;99.90;;;;;;4957644;29;20628;-65
2022/04/01 12:46:34;;;;;;;3.30;3.10;;;4.00;99.90;;;;;;4957573;28;20633;-65
2022/04/01 12:49:10;;;;;;;2.90;2.60;;;3.90;99.90;;;;;;4956945;28;20644;-61
2022/04/01 12:51:37;;;;;;;4.80;4.05;;;3.90;99.90;;;;;;4957562;29;20183;-64
2022/04/01 12:54:10;;;;;;;3.88;3.58;;;3.70;99.90;;;;;;4957207;29;20184;-67
2022/04/01 12:56:40;;;;;;;2.55;2.45;;;3.90;99.90;;;;;;4964138;28;20411;-68
2022/04/01 12:59:12;;;;;;;4.88;3.63;;;4.00;99.90;;;;;;4976303;28;20406;-69
2022/04/01 13:01:41;;;;;;;2.67;2.53;;;3.90;99.90;;;;;;4976799;28;20206;-71
2022/04/01 13:04:09;;;;;;;3.58;3.28;;;3.90;99.90;;;;;;4976536;28;20172;-70
2022/04/01 13:06:36;;;;;;;3.90;3.50;;;3.80;99.90;;;;;;4976421;28;20266;-67
2022/04/01 13:09:14;;;;;;;3.88;3.67;;;3.70;99.90;;;;;;4977308;28;20211;-69
2022/04/01 13:11:42;;;;;;;5.03;4.50;;;3.60;99.90;;;;;;4975520;28;20479;-67
2022/04/01 13:14:25;;;;;;;3.28;3.00;;;3.60;99.90;;;;;;4975685;28;20182;-66
2022/04/01 13:16:53;;;;;;;4.20;3.80;;;3.60;99.90;;;;;;4976235;28;20433;-67
2022/04/01 13:19:32;;;;;;;5.20;4.72;;;3.60;99.90;;;;;;4976480;28;20272;-67
2022/04/01 13:22:03;;;;;;;3.17;2.88;;;3.50;99.90;;;;;;4974307;28;20200;-66
2022/04/01 13:24:39;;;;;;;4.80;3.75;;;3.60;99.90;;;;;;4974628;28;20663;-68